sensor_id;sensor_type;location;lat;lon;timestamp;P1;durP1;ratioP1;P2;durP2;ratioP2
45848;SDS011;31567;54.600;9.842;2023-11-21T00:01:08;9.65;;;8.48;;
45848;SDS011;31567;54.600;9.842;2023-11-21T00:04:48;11.00;;;9.02;;
45848;SDS011;31567;54.600;9.842;2023-11-21T00:08:28;10.10;;;8.77;;
45848;SDS011;31567;54.600;9.842;2023-11-21T00:12:08;11.02;;;9.57;;
45848;SDS011;31567;54.600;9.842;2023-11-21T00:15:50;12.98;;;9.90;;
45848;SDS011;31567;54.600;9.842;2023-11-21T00:19:30;9.23;;;8.32;;
45848;SDS011;31567;54.600;9.842;2023-11-21T00:23:09;12.13;;;8.30;;
45848;SDS011;31567;54.600;9.842;2023-11-21T00:26:49;8.55;;;7.40;;
45848;SDS011;31567;54.600;9.842;2023-11-21T00:30:28;10.02;;;8.30;;
45848;SDS011;31567;54.600;9.842;2023-11-21T00:34:11;9.60;;;7.50;;
45848;SDS011;31567;54.600;9.842;2023-11-21T00:37:51;9.23;;;7.60;;
45848;SDS011;31567;54.600;9.842;2023-11-21T00:41:34;9.70;;;6.88;;
45848;SDS011;31567;54.600;9.842;2023-11-21T00:45:15;8.98;;;7.50;;
45848;SDS011;31567;54.600;9.842;2023-11-21T00:48:55;11.02;;;6.60;;
45848;SDS011;31567;54.600;9.842;2023-11-21T00:52:35;11.23;;;6.75;;
45848;SDS011;31567;54.600;9.842;2023-11-21T00:56:15;9.10;;;6.55;;
45848;SDS011;31567;54.600;9.842;2023-11-21T00:59:55;9.77;;;6.22;;
45848;SDS011;31567;54.600;9.842;2023-11-21T01:03:35;8.45;;;6.55;;
45848;SDS011;31567;54.600;9.842;2023-11-21T01:07:14;8.55;;;6.30;;
45848;SDS011;31567;54.600;9.842;2023-11-21T01:10:54;8.68;;;6.18;;
45848;SDS011;31567;54.600;9.842;2023-11-21T01:14:33;8.25;;;6.18;;
45848;SDS011;31567;54.600;9.842;2023-11-21T01:18:15;8.85;;;6.72;;
45848;SDS011;31567;54.600;9.842;2023-11-21T01:21:54;10.85;;;6.90;;
45848;SDS011;31567;54.600;9.842;2023-11-21T01:25:35;7.60;;;6.25;;
45848;SDS011;31567;54.600;9.842;2023-11-21T01:29:15;6.40;;;5.80;;
45848;SDS011;31567;54.600;9.842;2023-11-21T01:32:55;7.82;;;5.90;;
45848;SDS011;31567;54.600;9.842;2023-11-21T01:36:35;9.05;;;5.47;;
45848;SDS011;31567;54.600;9.842;2023-11-21T01:40:15;6.57;;;5.30;;
45848;SDS011;31567;54.600;9.842;2023-11-21T01:43:55;7.03;;;5.80;;
45848;SDS011;31567;54.600;9.842;2023-11-21T01:47:35;8.18;;;5.30;;
45848;SDS011;31567;54.600;9.842;2023-11-21T01:51:16;6.25;;;5.63;;
45848;SDS011;31567;54.600;9.842;2023-11-21T01:54:57;9.35;;;5.13;;
45848;SDS011;31567;54.600;9.842;2023-11-21T01:58:39;7.65;;;6.10;;
45848;SDS011;31567;54.600;9.842;2023-11-21T02:02:20;9.00;;;5.90;;
45848;SDS011;31567;54.600;9.842;2023-11-21T02:05:59;8.20;;;6.07;;
45848;SDS011;31567;54.600;9.842;2023-11-21T02:09:39;6.65;;;5.45;;
45848;SDS011;31567;54.600;9.842;2023-11-21T02:13:21;7.82;;;5.38;;
45848;SDS011;31567;54.600;9.842;2023-11-21T02:17:00;8.35;;;5.13;;
45848;SDS011;31567;54.600;9.842;2023-11-21T02:20:42;7.22;;;5.72;;
45848;SDS011;31567;54.600;9.842;2023-11-21T02:24:22;6.25;;;5.20;;
45848;SDS011;31567;54.600;9.842;2023-11-21T02:28:02;5.88;;;5.00;;
45848;SDS011;31567;54.600;9.842;2023-11-21T02:31:43;8.38;;;4.90;;
45848;SDS011;31567;54.600;9.842;2023-11-21T02:35:26;6.35;;;5.57;;
45848;SDS011;31567;54.600;9.842;2023-11-21T02:39:06;5.22;;;4.72;;
45848;SDS011;31567;54.600;9.842;2023-11-21T02:42:47;6.60;;;4.72;;
45848;SDS011;31567;54.600;9.842;2023-11-21T02:46:27;8.45;;;4.75;;
45848;SDS011;31567;54.600;9.842;2023-11-21T02:50:06;7.35;;;4.80;;
45848;SDS011;31567;54.600;9.842;2023-11-21T02:53:47;6.93;;;4.78;;
45848;SDS011;31567;54.600;9.842;2023-11-21T02:57:27;5.32;;;4.35;;
45848;SDS011;31567;54.600;9.842;2023-11-21T03:01:07;3.90;;;3.55;;
45848;SDS011;31567;54.600;9.842;2023-11-21T03:04:46;5.68;;;3.95;;
45848;SDS011;31567;54.600;9.842;2023-11-21T03:08:28;4.53;;;3.80;;
45848;SDS011;31567;54.600;9.842;2023-11-21T03:12:08;4.68;;;3.78;;
45848;SDS011;31567;54.600;9.842;2023-11-21T03:15:48;5.07;;;3.72;;
45848;SDS011;31567;54.600;9.842;2023-11-21T03:19:28;5.72;;;3.97;;
45848;SDS011;31567;54.600;9.842;2023-11-21T03:23:08;4.88;;;3.53;;
45848;SDS011;31567;54.600;9.842;2023-11-21T03:26:48;5.65;;;4.03;;
45848;SDS011;31567;54.600;9.842;2023-11-21T03:30:27;5.60;;;3.88;;
45848;SDS011;31567;54.600;9.842;2023-11-21T03:34:10;6.53;;;4.13;;
45848;SDS011;31567;54.600;9.842;2023-11-21T03:37:54;4.13;;;3.25;;
45848;SDS011;31567;54.600;9.842;2023-11-21T03:41:34;3.83;;;3.35;;
45848;SDS011;31567;54.600;9.842;2023-11-21T03:45:13;4.13;;;3.30;;
45848;SDS011;31567;54.600;9.842;2023-11-21T03:48:53;3.55;;;3.10;;
45848;SDS011;31567;54.600;9.842;2023-11-21T03:52:34;3.97;;;3.08;;
45848;SDS011;31567;54.600;9.842;2023-11-21T03:56:14;3.85;;;3.00;;
45848;SDS011;31567;54.600;9.842;2023-11-21T03:59:54;6.75;;;3.30;;
45848;SDS011;31567;54.600;9.842;2023-11-21T04:03:33;4.18;;;3.08;;
45848;SDS011;31567;54.600;9.842;2023-11-21T04:07:13;4.60;;;3.38;;
45848;SDS011;31567;54.600;9.842;2023-11-21T04:10:52;3.45;;;3.10;;
45848;SDS011;31567;54.600;9.842;2023-11-21T04:14:32;5.47;;;3.17;;
45848;SDS011;31567;54.600;9.842;2023-11-21T04:18:12;3.60;;;2.75;;
45848;SDS011;31567;54.600;9.842;2023-11-21T04:21:51;5.20;;;2.88;;
45848;SDS011;31567;54.600;9.842;2023-11-21T04:25:31;3.78;;;2.78;;
45848;SDS011;31567;54.600;9.842;2023-11-21T04:29:10;6.25;;;2.72;;
45848;SDS011;31567;54.600;9.842;2023-11-21T04:32:50;3.08;;;2.78;;
45848;SDS011;31567;54.600;9.842;2023-11-21T04:36:30;3.50;;;2.67;;
45848;SDS011;31567;54.600;9.842;2023-11-21T04:40:13;3.17;;;2.80;;
45848;SDS011;31567;54.600;9.842;2023-11-21T04:43:52;3.35;;;2.83;;
45848;SDS011;31567;54.600;9.842;2023-11-21T04:47:32;3.28;;;2.80;;
45848;SDS011;31567;54.600;9.842;2023-11-21T04:51:11;3.95;;;3.08;;
45848;SDS011;31567;54.600;9.842;2023-11-21T04:54:51;4.78;;;2.95;;
45848;SDS011;31567;54.600;9.842;2023-11-21T04:58:33;4.28;;;2.83;;
45848;SDS011;31567;54.600;9.842;2023-11-21T05:02:12;3.42;;;3.13;;
45848;SDS011;31567;54.600;9.842;2023-11-21T05:05:52;3.70;;;3.40;;
45848;SDS011;31567;54.600;9.842;2023-11-21T05:09:32;4.43;;;3.13;;
45848;SDS011;31567;54.600;9.842;2023-11-21T05:13:11;5.28;;;3.42;;
45848;SDS011;31567;54.600;9.842;2023-11-21T05:16:51;4.95;;;3.40;;
45848;SDS011;31567;54.600;9.842;2023-11-21T05:20:30;3.67;;;3.05;;
45848;SDS011;31567;54.600;9.842;2023-11-21T05:24:10;3.22;;;2.80;;
45848;SDS011;31567;54.600;9.842;2023-11-21T05:27:50;2.78;;;2.58;;
45848;SDS011;31567;54.600;9.842;2023-11-21T05:31:29;3.00;;;2.75;;
45848;SDS011;31567;54.600;9.842;2023-11-21T05:35:09;4.47;;;2.95;;
45848;SDS011;31567;54.600;9.842;2023-11-21T05:38:54;5.63;;;3.42;;
45848;SDS011;31567;54.600;9.842;2023-11-21T05:42:34;7.90;;;3.38;;
45848;SDS011;31567;54.600;9.842;2023-11-21T05:46:14;3.90;;;3.05;;
45848;SDS011;31567;54.600;9.842;2023-11-21T05:49:53;3.28;;;2.97;;
45848;SDS011;31567;54.600;9.842;2023-11-21T05:53:33;4.90;;;3.30;;
45848;SDS011;31567;54.600;9.842;2023-11-21T05:57:12;5.88;;;3.92;;
45848;SDS011;31567;54.600;9.842;2023-11-21T06:00:52;5.32;;;4.05;;
45848;SDS011;31567;54.600;9.842;2023-11-21T06:04:31;5.38;;;4.80;;
45848;SDS011;31567;54.600;9.842;2023-11-21T06:08:11;5.43;;;4.47;;
45848;SDS011;31567;54.600;9.842;2023-11-21T06:11:51;6.10;;;4.80;;
45848;SDS011;31567;54.600;9.842;2023-11-21T06:15:30;6.63;;;4.65;;
45848;SDS011;31567;54.600;9.842;2023-11-21T06:19:10;7.43;;;5.00;;
45848;SDS011;31567;54.600;9.842;2023-11-21T06:22:50;5.28;;;4.80;;
45848;SDS011;31567;54.600;9.842;2023-11-21T06:26:30;7.30;;;5.03;;
45848;SDS011;31567;54.600;9.842;2023-11-21T06:30:11;5.40;;;4.90;;
45848;SDS011;31567;54.600;9.842;2023-11-21T06:33:52;7.43;;;5.28;;
45848;SDS011;31567;54.600;9.842;2023-11-21T06:37:33;4.80;;;4.40;;
45848;SDS011;31567;54.600;9.842;2023-11-21T06:41:13;6.55;;;5.20;;
45848;SDS011;31567;54.600;9.842;2023-11-21T06:44:54;5.88;;;4.82;;
45848;SDS011;31567;54.600;9.842;2023-11-21T06:48:36;5.00;;;4.47;;
45848;SDS011;31567;54.600;9.842;2023-11-21T06:52:17;7.70;;;4.60;;
45848;SDS011;31567;54.600;9.842;2023-11-21T06:55:57;4.93;;;4.45;;
45848;SDS011;31567;54.600;9.842;2023-11-21T06:59:37;7.30;;;5.40;;
45848;SDS011;31567;54.600;9.842;2023-11-21T07:03:17;6.85;;;5.47;;
45848;SDS011;31567;54.600;9.842;2023-11-21T07:06:58;8.05;;;5.57;;
45848;SDS011;31567;54.600;9.842;2023-11-21T07:10:37;6.70;;;5.63;;
45848;SDS011;31567;54.600;9.842;2023-11-21T07:14:17;7.72;;;5.65;;
45848;SDS011;31567;54.600;9.842;2023-11-21T07:17:58;8.05;;;6.70;;
45848;SDS011;31567;54.600;9.842;2023-11-21T07:21:38;8.60;;;5.72;;
45848;SDS011;31567;54.600;9.842;2023-11-21T07:25:18;10.23;;;5.78;;
45848;SDS011;31567;54.600;9.842;2023-11-21T07:28:58;7.13;;;5.60;;
45848;SDS011;31567;54.600;9.842;2023-11-21T07:32:38;5.85;;;5.32;;
45848;SDS011;31567;54.600;9.842;2023-11-21T07:36:19;7.50;;;5.65;;
45848;SDS011;31567;54.600;9.842;2023-11-21T07:39:59;6.35;;;5.75;;
45848;SDS011;31567;54.600;9.842;2023-11-21T07:43:39;7.03;;;6.03;;
45848;SDS011;31567;54.600;9.842;2023-11-21T07:47:19;6.10;;;5.50;;
45848;SDS011;31567;54.600;9.842;2023-11-21T07:50:58;8.05;;;6.20;;
45848;SDS011;31567;54.600;9.842;2023-11-21T07:54:38;8.10;;;6.90;;
45848;SDS011;31567;54.600;9.842;2023-11-21T07:58:17;8.43;;;6.03;;
45848;SDS011;31567;54.600;9.842;2023-11-21T08:01:57;8.60;;;6.95;;
45848;SDS011;31567;54.600;9.842;2023-11-21T08:05:37;8.90;;;7.03;;
45848;SDS011;31567;54.600;9.842;2023-11-21T08:09:16;8.02;;;6.78;;
45848;SDS011;31567;54.600;9.842;2023-11-21T08:12:56;10.15;;;6.90;;
45848;SDS011;31567;54.600;9.842;2023-11-21T08:16:36;6.78;;;6.07;;
45848;SDS011;31567;54.600;9.842;2023-11-21T08:20:15;8.45;;;6.72;;
45848;SDS011;31567;54.600;9.842;2023-11-21T08:23:55;6.57;;;5.93;;
45848;SDS011;31567;54.600;9.842;2023-11-21T08:27:35;7.07;;;6.03;;
45848;SDS011;31567;54.600;9.842;2023-11-21T08:31:15;7.85;;;6.03;;
45848;SDS011;31567;54.600;9.842;2023-11-21T08:34:54;7.18;;;5.57;;
45848;SDS011;31567;54.600;9.842;2023-11-21T08:42:16;7.30;;;5.90;;
45848;SDS011;31567;54.600;9.842;2023-11-21T08:45:56;7.75;;;5.43;;
45848;SDS011;31567;54.600;9.842;2023-11-21T08:49:36;5.40;;;4.68;;
45848;SDS011;31567;54.600;9.842;2023-11-21T08:53:17;6.18;;;5.57;;
45848;SDS011;31567;54.600;9.842;2023-11-21T08:56:56;5.45;;;4.85;;
45848;SDS011;31567;54.600;9.842;2023-11-21T09:00:37;6.22;;;4.22;;
45848;SDS011;31567;54.600;9.842;2023-11-21T09:04:18;4.72;;;4.32;;
45848;SDS011;31567;54.600;9.842;2023-11-21T09:07:58;6.53;;;4.60;;
45848;SDS011;31567;54.600;9.842;2023-11-21T09:11:37;4.43;;;4.03;;
45848;SDS011;31567;54.600;9.842;2023-11-21T09:15:17;5.28;;;4.75;;
45848;SDS011;31567;54.600;9.842;2023-11-21T09:18:56;5.20;;;4.70;;
45848;SDS011;31567;54.600;9.842;2023-11-21T09:22:36;6.65;;;4.50;;
45848;SDS011;31567;54.600;9.842;2023-11-21T09:26:16;4.82;;;4.30;;
45848;SDS011;31567;54.600;9.842;2023-11-21T09:29:56;6.00;;;3.88;;
45848;SDS011;31567;54.600;9.842;2023-11-21T09:33:37;6.28;;;4.57;;
45848;SDS011;31567;54.600;9.842;2023-11-21T09:37:17;7.88;;;4.47;;
45848;SDS011;31567;54.600;9.842;2023-11-21T09:40:58;5.55;;;4.25;;
45848;SDS011;31567;54.600;9.842;2023-11-21T09:44:46;5.05;;;4.07;;
45848;SDS011;31567;54.600;9.842;2023-11-21T09:52:18;4.88;;;4.10;;
45848;SDS011;31567;54.600;9.842;2023-11-21T09:56:06;4.95;;;4.43;;
45848;SDS011;31567;54.600;9.842;2023-11-21T09:59:49;5.57;;;4.70;;
45848;SDS011;31567;54.600;9.842;2023-11-21T10:03:35;4.93;;;3.63;;
45848;SDS011;31567;54.600;9.842;2023-11-21T10:07:17;7.50;;;4.65;;
45848;SDS011;31567;54.600;9.842;2023-11-21T10:10:58;5.95;;;5.35;;
45848;SDS011;31567;54.600;9.842;2023-11-21T10:14:39;5.45;;;4.47;;
45848;SDS011;31567;54.600;9.842;2023-11-21T10:18:20;7.38;;;4.53;;
45848;SDS011;31567;54.600;9.842;2023-11-21T10:22:03;9.18;;;4.57;;
45848;SDS011;31567;54.600;9.842;2023-11-21T10:25:45;6.47;;;4.80;;
45848;SDS011;31567;54.600;9.842;2023-11-21T10:29:28;6.78;;;4.90;;
45848;SDS011;31567;54.600;9.842;2023-11-21T10:33:08;8.02;;;5.10;;
45848;SDS011;31567;54.600;9.842;2023-11-21T10:36:48;5.07;;;4.50;;
45848;SDS011;31567;54.600;9.842;2023-11-21T10:40:27;5.05;;;4.55;;
45848;SDS011;31567;54.600;9.842;2023-11-21T10:44:08;8.07;;;5.40;;
45848;SDS011;31567;54.600;9.842;2023-11-21T10:47:48;7.65;;;5.20;;
45848;SDS011;31567;54.600;9.842;2023-11-21T10:51:30;6.00;;;5.40;;
45848;SDS011;31567;54.600;9.842;2023-11-21T10:55:17;5.78;;;5.03;;
45848;SDS011;31567;54.600;9.842;2023-11-21T10:58:58;5.50;;;4.95;;
45848;SDS011;31567;54.600;9.842;2023-11-21T11:02:37;6.38;;;5.15;;
45848;SDS011;31567;54.600;9.842;2023-11-21T11:06:18;6.57;;;4.82;;
45848;SDS011;31567;54.600;9.842;2023-11-21T11:09:58;7.63;;;5.53;;
45848;SDS011;31567;54.600;9.842;2023-11-21T11:13:39;7.10;;;4.80;;
45848;SDS011;31567;54.600;9.842;2023-11-21T11:17:23;7.88;;;5.32;;
45848;SDS011;31567;54.600;9.842;2023-11-21T11:25:12;7.28;;;4.95;;
45848;SDS011;31567;54.600;9.842;2023-11-21T11:29:04;5.53;;;4.97;;
45848;SDS011;31567;54.600;9.842;2023-11-21T11:33:06;8.82;;;4.93;;
45848;SDS011;31567;54.600;9.842;2023-11-21T11:37:01;7.85;;;5.13;;
45848;SDS011;31567;54.600;9.842;2023-11-21T11:40:46;7.75;;;5.10;;
45848;SDS011;31567;54.600;9.842;2023-11-21T11:48:30;7.18;;;4.63;;
45848;SDS011;31567;54.600;9.842;2023-11-21T11:52:35;6.00;;;4.53;;
45848;SDS011;31567;54.600;9.842;2023-11-21T12:00:09;7.63;;;4.25;;
45848;SDS011;31567;54.600;9.842;2023-11-21T12:04:24;6.22;;;4.90;;
45848;SDS011;31567;54.600;9.842;2023-11-21T12:08:00;5.50;;;4.50;;
45848;SDS011;31567;54.600;9.842;2023-11-21T12:11:42;9.18;;;5.15;;
45848;SDS011;31567;54.600;9.842;2023-11-21T12:15:22;4.93;;;4.20;;
45848;SDS011;31567;54.600;9.842;2023-11-21T12:19:02;5.35;;;4.85;;
45848;SDS011;31567;54.600;9.842;2023-11-21T12:22:52;5.85;;;4.35;;
45848;SDS011;31567;54.600;9.842;2023-11-21T12:26:32;6.35;;;4.80;;
45848;SDS011;31567;54.600;9.842;2023-11-21T12:30:12;4.18;;;3.78;;
45848;SDS011;31567;54.600;9.842;2023-11-21T12:33:52;4.88;;;4.47;;
45848;SDS011;31567;54.600;9.842;2023-11-21T12:37:32;5.47;;;4.72;;
45848;SDS011;31567;54.600;9.842;2023-11-21T12:41:11;4.07;;;3.67;;
45848;SDS011;31567;54.600;9.842;2023-11-21T12:45:07;6.88;;;4.50;;
45848;SDS011;31567;54.600;9.842;2023-11-21T12:48:47;5.78;;;3.90;;
45848;SDS011;31567;54.600;9.842;2023-11-21T12:52:27;7.00;;;4.13;;
45848;SDS011;31567;54.600;9.842;2023-11-21T12:56:07;5.85;;;4.13;;
45848;SDS011;31567;54.600;9.842;2023-11-21T12:59:50;4.38;;;3.88;;
45848;SDS011;31567;54.600;9.842;2023-11-21T13:03:33;6.20;;;4.22;;
45848;SDS011;31567;54.600;9.842;2023-11-21T13:07:15;6.60;;;3.72;;
45848;SDS011;31567;54.600;9.842;2023-11-21T13:10:56;5.85;;;3.83;;
45848;SDS011;31567;54.600;9.842;2023-11-21T13:14:36;4.47;;;3.70;;
45848;SDS011;31567;54.600;9.842;2023-11-21T13:18:16;6.30;;;3.67;;
45848;SDS011;31567;54.600;9.842;2023-11-21T13:21:56;3.75;;;3.45;;
45848;SDS011;31567;54.600;9.842;2023-11-21T13:25:38;3.67;;;3.35;;
45848;SDS011;31567;54.600;9.842;2023-11-21T13:29:20;5.50;;;3.83;;
45848;SDS011;31567;54.600;9.842;2023-11-21T13:33:00;4.82;;;3.40;;
45848;SDS011;31567;54.600;9.842;2023-11-21T13:36:41;4.50;;;3.40;;
45848;SDS011;31567;54.600;9.842;2023-11-21T13:40:21;6.03;;;3.78;;
45848;SDS011;31567;54.600;9.842;2023-11-21T13:44:05;3.38;;;3.00;;
45848;SDS011;31567;54.600;9.842;2023-11-21T13:47:55;5.75;;;3.67;;
45848;SDS011;31567;54.600;9.842;2023-11-21T13:51:37;5.35;;;3.47;;
45848;SDS011;31567;54.600;9.842;2023-11-21T13:55:19;3.65;;;3.25;;
45848;SDS011;31567;54.600;9.842;2023-11-21T13:59:00;6.30;;;3.60;;
45848;SDS011;31567;54.600;9.842;2023-11-21T14:02:48;3.42;;;2.95;;
45848;SDS011;31567;54.600;9.842;2023-11-21T14:06:28;5.95;;;2.92;;
45848;SDS011;31567;54.600;9.842;2023-11-21T14:10:13;4.35;;;3.40;;
45848;SDS011;31567;54.600;9.842;2023-11-21T14:13:53;4.55;;;3.03;;
45848;SDS011;31567;54.600;9.842;2023-11-21T14:17:33;3.40;;;3.10;;
45848;SDS011;31567;54.600;9.842;2023-11-21T14:21:14;5.22;;;3.45;;
45848;SDS011;31567;54.600;9.842;2023-11-21T14:24:54;5.13;;;3.08;;
45848;SDS011;31567;54.600;9.842;2023-11-21T14:28:37;5.72;;;3.45;;
45848;SDS011;31567;54.600;9.842;2023-11-21T14:32:17;3.63;;;3.08;;
45848;SDS011;31567;54.600;9.842;2023-11-21T14:35:56;3.88;;;3.55;;
45848;SDS011;31567;54.600;9.842;2023-11-21T14:39:36;7.38;;;3.70;;
45848;SDS011;31567;54.600;9.842;2023-11-21T14:43:22;5.18;;;3.20;;
45848;SDS011;31567;54.600;9.842;2023-11-21T14:47:01;3.92;;;3.47;;
45848;SDS011;31567;54.600;9.842;2023-11-21T14:50:45;5.28;;;3.35;;
45848;SDS011;31567;54.600;9.842;2023-11-21T14:54:47;4.28;;;3.17;;
45848;SDS011;31567;54.600;9.842;2023-11-21T14:58:36;3.35;;;3.05;;
45848;SDS011;31567;54.600;9.842;2023-11-21T15:02:18;4.60;;;3.20;;
45848;SDS011;31567;54.600;9.842;2023-11-21T15:06:21;4.97;;;3.25;;
45848;SDS011;31567;54.600;9.842;2023-11-21T15:10:05;3.95;;;3.30;;
45848;SDS011;31567;54.600;9.842;2023-11-21T15:13:50;4.32;;;3.10;;
45848;SDS011;31567;54.600;9.842;2023-11-21T15:17:31;3.55;;;3.25;;
45848;SDS011;31567;54.600;9.842;2023-11-21T15:21:11;4.00;;;3.00;;
45848;SDS011;31567;54.600;9.842;2023-11-21T15:24:50;4.10;;;3.15;;
45848;SDS011;31567;54.600;9.842;2023-11-21T15:28:32;3.38;;;2.97;;
45848;SDS011;31567;54.600;9.842;2023-11-21T15:32:12;3.55;;;3.10;;
45848;SDS011;31567;54.600;9.842;2023-11-21T15:35:51;3.45;;;2.90;;
45848;SDS011;31567;54.600;9.842;2023-11-21T15:39:32;4.93;;;3.10;;
45848;SDS011;31567;54.600;9.842;2023-11-21T15:43:12;4.32;;;3.15;;
45848;SDS011;31567;54.600;9.842;2023-11-21T15:46:52;4.45;;;2.90;;
45848;SDS011;31567;54.600;9.842;2023-11-21T15:50:34;3.50;;;2.45;;
45848;SDS011;31567;54.600;9.842;2023-11-21T15:54:15;4.88;;;3.08;;
45848;SDS011;31567;54.600;9.842;2023-11-21T15:57:54;5.32;;;3.25;;
45848;SDS011;31567;54.600;9.842;2023-11-21T16:01:34;3.70;;;3.15;;
45848;SDS011;31567;54.600;9.842;2023-11-21T16:05:13;4.85;;;3.53;;
45848;SDS011;31567;54.600;9.842;2023-11-21T16:08:53;4.38;;;3.85;;
45848;SDS011;31567;54.600;9.842;2023-11-21T16:12:33;8.88;;;4.82;;
45848;SDS011;31567;54.600;9.842;2023-11-21T16:16:12;5.28;;;3.85;;
45848;SDS011;31567;54.600;9.842;2023-11-21T16:19:52;4.85;;;3.38;;
45848;SDS011;31567;54.600;9.842;2023-11-21T16:23:34;5.43;;;3.50;;
45848;SDS011;31567;54.600;9.842;2023-11-21T16:27:14;3.63;;;3.15;;
45848;SDS011;31567;54.600;9.842;2023-11-21T16:30:53;3.78;;;3.45;;
45848;SDS011;31567;54.600;9.842;2023-11-21T16:34:33;4.50;;;3.72;;
45848;SDS011;31567;54.600;9.842;2023-11-21T16:38:14;4.70;;;3.42;;
45848;SDS011;31567;54.600;9.842;2023-11-21T16:41:54;3.40;;;3.10;;
45848;SDS011;31567;54.600;9.842;2023-11-21T16:45:34;4.78;;;3.63;;
45848;SDS011;31567;54.600;9.842;2023-11-21T16:49:14;4.55;;;3.10;;
45848;SDS011;31567;54.600;9.842;2023-11-21T16:52:53;4.10;;;2.78;;
45848;SDS011;31567;54.600;9.842;2023-11-21T16:56:33;3.45;;;2.50;;
45848;SDS011;31567;54.600;9.842;2023-11-21T17:00:12;5.32;;;3.53;;
45848;SDS011;31567;54.600;9.842;2023-11-21T17:03:52;4.25;;;2.63;;
45848;SDS011;31567;54.600;9.842;2023-11-21T17:07:31;4.40;;;3.88;;
45848;SDS011;31567;54.600;9.842;2023-11-21T17:11:11;4.22;;;3.03;;
45848;SDS011;31567;54.600;9.842;2023-11-21T17:14:52;3.85;;;2.60;;
45848;SDS011;31567;54.600;9.842;2023-11-21T17:18:32;3.15;;;2.40;;
45848;SDS011;31567;54.600;9.842;2023-11-21T17:22:12;2.50;;;2.30;;
45848;SDS011;31567;54.600;9.842;2023-11-21T17:25:52;3.75;;;2.47;;
45848;SDS011;31567;54.600;9.842;2023-11-21T17:29:31;3.22;;;2.80;;
45848;SDS011;31567;54.600;9.842;2023-11-21T17:33:11;3.72;;;2.30;;
45848;SDS011;31567;54.600;9.842;2023-11-21T17:36:51;3.22;;;2.80;;
45848;SDS011;31567;54.600;9.842;2023-11-21T17:40:30;3.05;;;2.70;;
45848;SDS011;31567;54.600;9.842;2023-11-21T17:44:10;4.53;;;2.70;;
45848;SDS011;31567;54.600;9.842;2023-11-21T17:47:49;6.13;;;2.70;;
45848;SDS011;31567;54.600;9.842;2023-11-21T17:51:29;4.50;;;2.78;;
45848;SDS011;31567;54.600;9.842;2023-11-21T17:55:09;3.60;;;2.58;;
45848;SDS011;31567;54.600;9.842;2023-11-21T17:58:49;2.78;;;2.45;;
45848;SDS011;31567;54.600;9.842;2023-11-21T18:02:32;5.40;;;2.83;;
45848;SDS011;31567;54.600;9.842;2023-11-21T18:06:12;3.60;;;2.42;;
45848;SDS011;31567;54.600;9.842;2023-11-21T18:09:52;3.10;;;2.20;;
45848;SDS011;31567;54.600;9.842;2023-11-21T18:13:32;4.45;;;2.78;;
45848;SDS011;31567;54.600;9.842;2023-11-21T18:17:12;2.95;;;2.50;;
45848;SDS011;31567;54.600;9.842;2023-11-21T18:20:54;5.43;;;2.50;;
45848;SDS011;31567;54.600;9.842;2023-11-21T18:24:33;3.38;;;2.03;;
45848;SDS011;31567;54.600;9.842;2023-11-21T18:28:13;2.15;;;1.95;;
45848;SDS011;31567;54.600;9.842;2023-11-21T18:31:53;2.47;;;2.03;;
45848;SDS011;31567;54.600;9.842;2023-11-21T18:35:32;2.55;;;1.52;;
45848;SDS011;31567;54.600;9.842;2023-11-21T18:39:12;3.88;;;1.63;;
45848;SDS011;31567;54.600;9.842;2023-11-21T18:42:56;2.63;;;1.67;;
45848;SDS011;31567;54.600;9.842;2023-11-21T18:46:39;3.13;;;1.45;;
45848;SDS011;31567;54.600;9.842;2023-11-21T18:50:20;3.35;;;1.67;;
45848;SDS011;31567;54.600;9.842;2023-11-21T18:54:00;1.88;;;1.60;;
45848;SDS011;31567;54.600;9.842;2023-11-21T18:57:39;2.00;;;1.70;;
45848;SDS011;31567;54.600;9.842;2023-11-21T19:05:05;2.97;;;1.60;;
45848;SDS011;31567;54.600;9.842;2023-11-21T19:08:46;1.88;;;1.65;;
45848;SDS011;31567;54.600;9.842;2023-11-21T19:12:26;3.10;;;2.20;;
45848;SDS011;31567;54.600;9.842;2023-11-21T19:16:05;3.17;;;2.20;;
45848;SDS011;31567;54.600;9.842;2023-11-21T19:19:45;2.58;;;2.38;;
45848;SDS011;31567;54.600;9.842;2023-11-21T19:23:25;3.15;;;2.22;;
45848;SDS011;31567;54.600;9.842;2023-11-21T19:27:04;5.13;;;2.70;;
45848;SDS011;31567;54.600;9.842;2023-11-21T19:30:44;2.85;;;2.42;;
45848;SDS011;31567;54.600;9.842;2023-11-21T19:34:24;2.33;;;2.00;;
45848;SDS011;31567;54.600;9.842;2023-11-21T19:38:10;3.58;;;2.78;;
45848;SDS011;31567;54.600;9.842;2023-11-21T19:41:49;2.20;;;2.00;;
45848;SDS011;31567;54.600;9.842;2023-11-21T19:45:29;2.25;;;1.88;;
45848;SDS011;31567;54.600;9.842;2023-11-21T19:49:10;4.28;;;2.10;;
45848;SDS011;31567;54.600;9.842;2023-11-21T19:52:51;3.58;;;2.30;;
45848;SDS011;31567;54.600;9.842;2023-11-21T19:56:31;4.10;;;2.17;;
45848;SDS011;31567;54.600;9.842;2023-11-21T20:00:10;2.38;;;1.98;;
45848;SDS011;31567;54.600;9.842;2023-11-21T20:03:50;6.40;;;2.58;;
45848;SDS011;31567;54.600;9.842;2023-11-21T20:07:30;4.78;;;3.10;;
45848;SDS011;31567;54.600;9.842;2023-11-21T20:11:11;2.80;;;1.98;;
45848;SDS011;31567;54.600;9.842;2023-11-21T20:14:51;1.90;;;1.80;;
45848;SDS011;31567;54.600;9.842;2023-11-21T20:18:31;2.95;;;2.00;;
45848;SDS011;31567;54.600;9.842;2023-11-21T20:22:11;3.60;;;2.25;;
45848;SDS011;31567;54.600;9.842;2023-11-21T20:25:50;3.65;;;2.00;;
45848;SDS011;31567;54.600;9.842;2023-11-21T20:29:30;2.20;;;2.00;;
45848;SDS011;31567;54.600;9.842;2023-11-21T20:33:11;3.78;;;2.50;;
45848;SDS011;31567;54.600;9.842;2023-11-21T20:36:51;3.35;;;2.22;;
45848;SDS011;31567;54.600;9.842;2023-11-21T20:40:31;3.78;;;2.45;;
45848;SDS011;31567;54.600;9.842;2023-11-21T20:44:11;2.20;;;2.00;;
45848;SDS011;31567;54.600;9.842;2023-11-21T20:47:50;2.60;;;2.20;;
45848;SDS011;31567;54.600;9.842;2023-11-21T20:51:30;5.22;;;2.38;;
45848;SDS011;31567;54.600;9.842;2023-11-21T20:55:10;2.50;;;1.88;;
45848;SDS011;31567;54.600;9.842;2023-11-21T20:58:50;2.83;;;1.95;;
45848;SDS011;31567;54.600;9.842;2023-11-21T21:02:30;3.40;;;2.42;;
45848;SDS011;31567;54.600;9.842;2023-11-21T21:06:09;3.53;;;2.03;;
45848;SDS011;31567;54.600;9.842;2023-11-21T21:09:49;5.00;;;2.08;;
45848;SDS011;31567;54.600;9.842;2023-11-21T21:13:28;2.85;;;2.03;;
45848;SDS011;31567;54.600;9.842;2023-11-21T21:17:08;3.15;;;2.00;;
45848;SDS011;31567;54.600;9.842;2023-11-21T21:20:48;3.03;;;1.63;;
45848;SDS011;31567;54.600;9.842;2023-11-21T21:24:29;2.28;;;1.85;;
45848;SDS011;31567;54.600;9.842;2023-11-21T21:28:09;3.88;;;1.88;;
45848;SDS011;31567;54.600;9.842;2023-11-21T21:31:49;4.85;;;2.25;;
45848;SDS011;31567;54.600;9.842;2023-11-21T21:35:28;4.03;;;1.90;;
45848;SDS011;31567;54.600;9.842;2023-11-21T21:39:08;3.45;;;2.60;;
45848;SDS011;31567;54.600;9.842;2023-11-21T21:42:49;2.78;;;2.00;;
45848;SDS011;31567;54.600;9.842;2023-11-21T21:46:29;4.75;;;2.30;;
45848;SDS011;31567;54.600;9.842;2023-11-21T21:50:08;2.15;;;1.65;;
45848;SDS011;31567;54.600;9.842;2023-11-21T21:53:48;5.35;;;2.15;;
45848;SDS011;31567;54.600;9.842;2023-11-21T21:57:28;2.40;;;2.20;;
45848;SDS011;31567;54.600;9.842;2023-11-21T22:01:07;2.70;;;1.83;;
45848;SDS011;31567;54.600;9.842;2023-11-21T22:04:47;2.47;;;1.92;;
45848;SDS011;31567;54.600;9.842;2023-11-21T22:08:27;2.10;;;1.60;;
45848;SDS011;31567;54.600;9.842;2023-11-21T22:12:07;2.75;;;1.60;;
45848;SDS011;31567;54.600;9.842;2023-11-21T22:15:49;3.05;;;1.80;;
45848;SDS011;31567;54.600;9.842;2023-11-21T22:19:28;5.38;;;1.98;;
45848;SDS011;31567;54.600;9.842;2023-11-21T22:23:08;5.07;;;2.03;;
45848;SDS011;31567;54.600;9.842;2023-11-21T22:26:49;2.05;;;1.88;;
45848;SDS011;31567;54.600;9.842;2023-11-21T22:30:28;2.08;;;1.83;;
45848;SDS011;31567;54.600;9.842;2023-11-21T22:34:08;3.72;;;2.30;;